sensor_id;sensor_type;location;lat;lon;timestamp;P1;durP1;ratioP1;P2;durP2;ratioP2
19137;SDS011;68178;52.188;5.598;2023-03-23T00:01:53;10.93;;;8.45;;
19137;SDS011;68178;52.188;5.598;2023-03-23T00:04:19;12.77;;;7.65;;
19137;SDS011;68178;52.188;5.598;2023-03-23T00:06:45;12.57;;;7.43;;
19137;SDS011;68178;52.188;5.598;2023-03-23T00:09:12;12.50;;;9.55;;
19137;SDS011;68178;52.188;5.598;2023-03-23T00:11:39;13.30;;;7.90;;
19137;SDS011;68178;52.188;5.598;2023-03-23T00:14:06;13.10;;;8.80;;
19137;SDS011;68178;52.188;5.598;2023-03-23T00:16:38;12.40;;;6.97;;
19137;SDS011;68178;52.188;5.598;2023-03-23T00:19:06;11.85;;;7.35;;
19137;SDS011;68178;52.188;5.598;2023-03-23T00:21:34;12.77;;;7.20;;
19137;SDS011;68178;52.188;5.598;2023-03-23T00:24:01;12.85;;;6.88;;
19137;SDS011;68178;52.188;5.598;2023-03-23T00:26:28;10.38;;;7.43;;
19137;SDS011;68178;52.188;5.598;2023-03-23T00:28:55;13.57;;;6.65;;
19137;SDS011;68178;52.188;5.598;2023-03-23T00:31:21;11.25;;;6.38;;
19137;SDS011;68178;52.188;5.598;2023-03-23T00:33:47;11.88;;;7.05;;
19137;SDS011;68178;52.188;5.598;2023-03-23T00:36:13;10.73;;;6.78;;
19137;SDS011;68178;52.188;5.598;2023-03-23T00:38:40;7.53;;;6.25;;
19137;SDS011;68178;52.188;5.598;2023-03-23T00:41:11;10.07;;;5.97;;
19137;SDS011;68178;52.188;5.598;2023-03-23T00:43:40;8.95;;;6.00;;
19137;SDS011;68178;52.188;5.598;2023-03-23T00:46:05;8.13;;;5.30;;
19137;SDS011;68178;52.188;5.598;2023-03-23T00:48:36;6.43;;;5.47;;
19137;SDS011;68178;52.188;5.598;2023-03-23T00:51:05;8.98;;;5.85;;
19137;SDS011;68178;52.188;5.598;2023-03-23T00:53:35;10.90;;;5.55;;
19137;SDS011;68178;52.188;5.598;2023-03-23T00:56:01;7.18;;;5.70;;
19137;SDS011;68178;52.188;5.598;2023-03-23T00:58:27;9.18;;;6.05;;
19137;SDS011;68178;52.188;5.598;2023-03-23T01:00:53;8.85;;;5.53;;
19137;SDS011;68178;52.188;5.598;2023-03-23T01:03:19;7.10;;;5.55;;
19137;SDS011;68178;52.188;5.598;2023-03-23T01:05:45;10.20;;;5.80;;
19137;SDS011;68178;52.188;5.598;2023-03-23T01:08:16;10.30;;;5.68;;
19137;SDS011;68178;52.188;5.598;2023-03-23T01:10:43;5.82;;;4.70;;
19137;SDS011;68178;52.188;5.598;2023-03-23T01:13:09;9.45;;;5.05;;
19137;SDS011;68178;52.188;5.598;2023-03-23T01:15:35;8.60;;;4.80;;
19137;SDS011;68178;52.188;5.598;2023-03-23T01:18:01;8.38;;;4.95;;
19137;SDS011;68178;52.188;5.598;2023-03-23T01:20:27;6.90;;;5.03;;
19137;SDS011;68178;52.188;5.598;2023-03-23T01:22:56;10.32;;;5.22;;
19137;SDS011;68178;52.188;5.598;2023-03-23T01:25:25;10.55;;;5.32;;
19137;SDS011;68178;52.188;5.598;2023-03-23T01:27:52;6.60;;;4.28;;
19137;SDS011;68178;52.188;5.598;2023-03-23T01:30:18;8.85;;;4.60;;
19137;SDS011;68178;52.188;5.598;2023-03-23T01:32:44;6.90;;;4.72;;
19137;SDS011;68178;52.188;5.598;2023-03-23T01:35:12;7.07;;;4.13;;
19137;SDS011;68178;52.188;5.598;2023-03-23T01:37:38;5.47;;;3.70;;
19137;SDS011;68178;52.188;5.598;2023-03-23T01:40:04;7.60;;;5.00;;
19137;SDS011;68178;52.188;5.598;2023-03-23T01:42:31;7.93;;;3.95;;
19137;SDS011;68178;52.188;5.598;2023-03-23T01:47:43;7.05;;;4.50;;
19137;SDS011;68178;52.188;5.598;2023-03-23T01:50:09;7.25;;;3.40;;
19137;SDS011;68178;52.188;5.598;2023-03-23T01:52:35;7.82;;;4.05;;
19137;SDS011;68178;52.188;5.598;2023-03-23T01:55:01;6.60;;;3.95;;
19137;SDS011;68178;52.188;5.598;2023-03-23T01:57:27;5.45;;;3.70;;
19137;SDS011;68178;52.188;5.598;2023-03-23T01:59:55;7.80;;;4.25;;
19137;SDS011;68178;52.188;5.598;2023-03-23T02:02:23;5.85;;;4.03;;
19137;SDS011;68178;52.188;5.598;2023-03-23T02:04:50;5.07;;;4.07;;
19137;SDS011;68178;52.188;5.598;2023-03-23T02:07:17;6.43;;;4.20;;
19137;SDS011;68178;52.188;5.598;2023-03-23T02:09:46;7.85;;;3.95;;
19137;SDS011;68178;52.188;5.598;2023-03-23T02:12:13;4.65;;;4.07;;
19137;SDS011;68178;52.188;5.598;2023-03-23T02:14:38;5.57;;;4.25;;
19137;SDS011;68178;52.188;5.598;2023-03-23T02:17:07;5.72;;;4.55;;
19137;SDS011;68178;52.188;5.598;2023-03-23T02:24:53;7.15;;;4.43;;
19137;SDS011;68178;52.188;5.598;2023-03-23T02:35:36;6.97;;;4.97;;
19137;SDS011;68178;52.188;5.598;2023-03-23T02:38:08;7.80;;;5.13;;
19137;SDS011;68178;52.188;5.598;2023-03-23T02:40:42;6.07;;;4.65;;
19137;SDS011;68178;52.188;5.598;2023-03-23T02:43:11;8.88;;;5.28;;
19137;SDS011;68178;52.188;5.598;2023-03-23T02:45:39;7.43;;;4.78;;
19137;SDS011;68178;52.188;5.598;2023-03-23T02:48:06;6.65;;;5.13;;
19137;SDS011;68178;52.188;5.598;2023-03-23T02:50:33;6.90;;;5.32;;
19137;SDS011;68178;52.188;5.598;2023-03-23T02:53:01;7.15;;;5.47;;
19137;SDS011;68178;52.188;5.598;2023-03-23T02:55:28;5.95;;;4.75;;
19137;SDS011;68178;52.188;5.598;2023-03-23T02:57:55;6.38;;;5.05;;
19137;SDS011;68178;52.188;5.598;2023-03-23T03:00:22;7.40;;;4.97;;
19137;SDS011;68178;52.188;5.598;2023-03-23T03:02:51;5.95;;;5.30;;
19137;SDS011;68178;52.188;5.598;2023-03-23T03:05:36;7.18;;;5.03;;
19137;SDS011;68178;52.188;5.598;2023-03-23T03:08:10;6.25;;;5.30;;
19137;SDS011;68178;52.188;5.598;2023-03-23T03:10:59;6.82;;;5.30;;
19137;SDS011;68178;52.188;5.598;2023-03-23T03:13:36;5.88;;;5.28;;
19137;SDS011;68178;52.188;5.598;2023-03-23T03:16:07;7.80;;;5.40;;
19137;SDS011;68178;52.188;5.598;2023-03-23T03:18:39;7.65;;;5.68;;
19137;SDS011;68178;52.188;5.598;2023-03-23T03:21:09;6.20;;;4.90;;
19137;SDS011;68178;52.188;5.598;2023-03-23T03:23:38;5.65;;;5.05;;
19137;SDS011;68178;52.188;5.598;2023-03-23T03:26:06;5.70;;;5.10;;
19137;SDS011;68178;52.188;5.598;2023-03-23T03:28:34;7.00;;;4.65;;
19137;SDS011;68178;52.188;5.598;2023-03-23T03:31:01;8.75;;;5.13;;
19137;SDS011;68178;52.188;5.598;2023-03-23T03:33:29;7.53;;;5.13;;
19137;SDS011;68178;52.188;5.598;2023-03-23T03:36:00;6.43;;;4.82;;
19137;SDS011;68178;52.188;5.598;2023-03-23T03:38:27;8.65;;;4.82;;
19137;SDS011;68178;52.188;5.598;2023-03-23T03:40:54;8.45;;;4.68;;
19137;SDS011;68178;52.188;5.598;2023-03-23T03:43:20;7.70;;;4.53;;
19137;SDS011;68178;52.188;5.598;2023-03-23T03:45:46;6.85;;;4.60;;
19137;SDS011;68178;52.188;5.598;2023-03-23T03:48:12;5.50;;;4.40;;
19137;SDS011;68178;52.188;5.598;2023-03-23T03:50:38;7.75;;;4.28;;
19137;SDS011;68178;52.188;5.598;2023-03-23T03:53:04;6.72;;;3.95;;
19137;SDS011;68178;52.188;5.598;2023-03-23T03:55:31;5.18;;;3.42;;
19137;SDS011;68178;52.188;5.598;2023-03-23T03:58:00;6.60;;;3.63;;
19137;SDS011;68178;52.188;5.598;2023-03-23T04:00:26;6.13;;;3.75;;
19137;SDS011;68178;52.188;5.598;2023-03-23T04:02:52;5.82;;;3.45;;
19137;SDS011;68178;52.188;5.598;2023-03-23T04:05:20;5.38;;;3.78;;
19137;SDS011;68178;52.188;5.598;2023-03-23T04:07:47;5.50;;;3.67;;
19137;SDS011;68178;52.188;5.598;2023-03-23T04:10:17;6.75;;;3.80;;
19137;SDS011;68178;52.188;5.598;2023-03-23T04:12:44;4.70;;;3.42;;
19137;SDS011;68178;52.188;5.598;2023-03-23T04:15:10;7.40;;;4.32;;
19137;SDS011;68178;52.188;5.598;2023-03-23T04:17:36;6.93;;;3.50;;
19137;SDS011;68178;52.188;5.598;2023-03-23T04:20:03;7.55;;;3.75;;
19137;SDS011;68178;52.188;5.598;2023-03-23T04:22:38;6.45;;;3.38;;
19137;SDS011;68178;52.188;5.598;2023-03-23T04:25:04;6.93;;;3.80;;
19137;SDS011;68178;52.188;5.598;2023-03-23T04:27:31;9.10;;;3.42;;
19137;SDS011;68178;52.188;5.598;2023-03-23T04:29:57;7.78;;;3.85;;
19137;SDS011;68178;52.188;5.598;2023-03-23T04:32:26;10.00;;;3.90;;
19137;SDS011;68178;52.188;5.598;2023-03-23T04:34:57;8.40;;;3.55;;
19137;SDS011;68178;52.188;5.598;2023-03-23T04:37:24;8.35;;;3.45;;
19137;SDS011;68178;52.188;5.598;2023-03-23T04:39:51;5.70;;;3.38;;
19137;SDS011;68178;52.188;5.598;2023-03-23T04:42:25;6.85;;;3.20;;
19137;SDS011;68178;52.188;5.598;2023-03-23T04:44:51;4.50;;;2.95;;
19137;SDS011;68178;52.188;5.598;2023-03-23T04:47:20;6.47;;;3.00;;
19137;SDS011;68178;52.188;5.598;2023-03-23T04:49:46;7.25;;;3.15;;
19137;SDS011;68178;52.188;5.598;2023-03-23T04:52:12;6.68;;;3.05;;
19137;SDS011;68178;52.188;5.598;2023-03-23T04:54:39;5.00;;;2.72;;
19137;SDS011;68178;52.188;5.598;2023-03-23T04:57:05;7.20;;;2.60;;
19137;SDS011;68178;52.188;5.598;2023-03-23T04:59:33;5.80;;;2.60;;
19137;SDS011;68178;52.188;5.598;2023-03-23T05:01:59;5.70;;;2.08;;
19137;SDS011;68178;52.188;5.598;2023-03-23T05:04:25;8.07;;;2.65;;
19137;SDS011;68178;52.188;5.598;2023-03-23T05:06:51;7.53;;;2.67;;
19137;SDS011;68178;52.188;5.598;2023-03-23T05:09:18;5.85;;;2.17;;
19137;SDS011;68178;52.188;5.598;2023-03-23T05:11:44;8.70;;;2.10;;
19137;SDS011;68178;52.188;5.598;2023-03-23T05:14:10;8.18;;;2.55;;
19137;SDS011;68178;52.188;5.598;2023-03-23T05:16:36;6.38;;;2.05;;
19137;SDS011;68178;52.188;5.598;2023-03-23T05:19:03;8.38;;;2.03;;
19137;SDS011;68178;52.188;5.598;2023-03-23T05:21:29;7.22;;;2.88;;
19137;SDS011;68178;52.188;5.598;2023-03-23T05:23:55;7.10;;;2.30;;
19137;SDS011;68178;52.188;5.598;2023-03-23T05:26:25;10.15;;;2.45;;
19137;SDS011;68178;52.188;5.598;2023-03-23T05:28:53;11.63;;;3.15;;
19137;SDS011;68178;52.188;5.598;2023-03-23T05:31:20;12.68;;;3.50;;
19137;SDS011;68178;52.188;5.598;2023-03-23T05:33:47;10.52;;;3.00;;
19137;SDS011;68178;52.188;5.598;2023-03-23T05:36:13;10.50;;;3.05;;
19137;SDS011;68178;52.188;5.598;2023-03-23T05:38:39;6.20;;;2.88;;
19137;SDS011;68178;52.188;5.598;2023-03-23T05:41:10;7.68;;;1.95;;
19137;SDS011;68178;52.188;5.598;2023-03-23T05:43:36;14.30;;;3.60;;
19137;SDS011;68178;52.188;5.598;2023-03-23T05:46:02;13.65;;;3.40;;
19137;SDS011;68178;52.188;5.598;2023-03-23T05:48:28;11.40;;;3.33;;
19137;SDS011;68178;52.188;5.598;2023-03-23T05:50:54;13.32;;;3.58;;
19137;SDS011;68178;52.188;5.598;2023-03-23T05:53:21;9.57;;;3.08;;
19137;SDS011;68178;52.188;5.598;2023-03-23T05:55:48;12.25;;;3.22;;
19137;SDS011;68178;52.188;5.598;2023-03-23T05:58:14;14.90;;;3.33;;
19137;SDS011;68178;52.188;5.598;2023-03-23T06:00:40;14.20;;;3.58;;
19137;SDS011;68178;52.188;5.598;2023-03-23T06:03:06;14.18;;;3.45;;
19137;SDS011;68178;52.188;5.598;2023-03-23T06:05:32;18.23;;;4.72;;
19137;SDS011;68178;52.188;5.598;2023-03-23T06:07:58;13.68;;;3.58;;
19137;SDS011;68178;52.188;5.598;2023-03-23T06:10:25;14.68;;;4.65;;
19137;SDS011;68178;52.188;5.598;2023-03-23T06:12:51;13.90;;;3.63;;
19137;SDS011;68178;52.188;5.598;2023-03-23T06:15:17;14.05;;;3.90;;
19137;SDS011;68178;52.188;5.598;2023-03-23T06:17:44;17.98;;;4.13;;
19137;SDS011;68178;52.188;5.598;2023-03-23T06:20:10;16.40;;;4.72;;
19137;SDS011;68178;52.188;5.598;2023-03-23T06:22:37;17.42;;;5.05;;
19137;SDS011;68178;52.188;5.598;2023-03-23T06:25:05;16.45;;;5.32;;
19137;SDS011;68178;52.188;5.598;2023-03-23T06:27:31;15.77;;;5.07;;
19137;SDS011;68178;52.188;5.598;2023-03-23T06:29:57;17.05;;;4.72;;
19137;SDS011;68178;52.188;5.598;2023-03-23T06:32:26;23.00;;;5.70;;
19137;SDS011;68178;52.188;5.598;2023-03-23T06:34:53;13.95;;;5.20;;
19137;SDS011;68178;52.188;5.598;2023-03-23T06:37:19;14.05;;;5.32;;
19137;SDS011;68178;52.188;5.598;2023-03-23T06:39:45;16.73;;;4.68;;
19137;SDS011;68178;52.188;5.598;2023-03-23T06:42:11;11.48;;;5.05;;
19137;SDS011;68178;52.188;5.598;2023-03-23T06:44:38;14.75;;;4.88;;
19137;SDS011;68178;52.188;5.598;2023-03-23T06:47:04;17.92;;;4.55;;
19137;SDS011;68178;52.188;5.598;2023-03-23T06:49:30;14.82;;;5.20;;
19137;SDS011;68178;52.188;5.598;2023-03-23T06:51:56;13.43;;;4.90;;
19137;SDS011;68178;52.188;5.598;2023-03-23T06:54:25;15.70;;;6.00;;
19137;SDS011;68178;52.188;5.598;2023-03-23T06:56:57;14.40;;;6.22;;
19137;SDS011;68178;52.188;5.598;2023-03-23T06:59:23;22.25;;;6.30;;
19137;SDS011;68178;52.188;5.598;2023-03-23T07:01:49;14.45;;;6.50;;
19137;SDS011;68178;52.188;5.598;2023-03-23T07:04:16;12.75;;;6.45;;
19137;SDS011;68178;52.188;5.598;2023-03-23T07:06:42;13.95;;;6.72;;
19137;SDS011;68178;52.188;5.598;2023-03-23T07:09:08;17.77;;;6.68;;
19137;SDS011;68178;52.188;5.598;2023-03-23T07:11:34;18.75;;;7.85;;
19137;SDS011;68178;52.188;5.598;2023-03-23T07:14:01;19.73;;;7.43;;
19137;SDS011;68178;52.188;5.598;2023-03-23T07:16:27;24.30;;;7.30;;
19137;SDS011;68178;52.188;5.598;2023-03-23T07:18:53;20.63;;;6.82;;
19137;SDS011;68178;52.188;5.598;2023-03-23T07:21:19;21.45;;;6.68;;
19137;SDS011;68178;52.188;5.598;2023-03-23T07:23:46;20.83;;;6.85;;
19137;SDS011;68178;52.188;5.598;2023-03-23T07:26:12;17.17;;;7.40;;
19137;SDS011;68178;52.188;5.598;2023-03-23T07:28:38;20.73;;;5.95;;
19137;SDS011;68178;52.188;5.598;2023-03-23T07:31:05;17.73;;;6.38;;
19137;SDS011;68178;52.188;5.598;2023-03-23T07:33:33;22.17;;;5.70;;
19137;SDS011;68178;52.188;5.598;2023-03-23T07:36:00;18.60;;;6.10;;
19137;SDS011;68178;52.188;5.598;2023-03-23T07:38:27;13.63;;;6.85;;
19137;SDS011;68178;52.188;5.598;2023-03-23T07:40:53;17.30;;;5.88;;
19137;SDS011;68178;52.188;5.598;2023-03-23T07:43:19;17.48;;;5.90;;
19137;SDS011;68178;52.188;5.598;2023-03-23T07:45:46;13.90;;;4.35;;
19137;SDS011;68178;52.188;5.598;2023-03-23T07:48:12;13.70;;;4.18;;
19137;SDS011;68178;52.188;5.598;2023-03-23T07:50:38;10.63;;;3.38;;
19137;SDS011;68178;52.188;5.598;2023-03-23T07:53:05;12.65;;;3.67;;
19137;SDS011;68178;52.188;5.598;2023-03-23T07:55:31;7.43;;;3.22;;
19137;SDS011;68178;52.188;5.598;2023-03-23T07:57:57;11.60;;;3.78;;
19137;SDS011;68178;52.188;5.598;2023-03-23T08:00:23;10.32;;;3.13;;
19137;SDS011;68178;52.188;5.598;2023-03-23T08:02:51;11.38;;;4.50;;
19137;SDS011;68178;52.188;5.598;2023-03-23T08:05:17;16.58;;;4.82;;
19137;SDS011;68178;52.188;5.598;2023-03-23T08:07:44;12.68;;;3.47;;
19137;SDS011;68178;52.188;5.598;2023-03-23T08:10:10;9.55;;;3.50;;
19137;SDS011;68178;52.188;5.598;2023-03-23T08:12:37;10.93;;;3.75;;
19137;SDS011;68178;52.188;5.598;2023-03-23T08:15:04;11.35;;;3.55;;
19137;SDS011;68178;52.188;5.598;2023-03-23T08:17:31;8.93;;;3.35;;
19137;SDS011;68178;52.188;5.598;2023-03-23T08:19:57;8.43;;;3.30;;
19137;SDS011;68178;52.188;5.598;2023-03-23T08:22:24;9.98;;;3.92;;
19137;SDS011;68178;52.188;5.598;2023-03-23T08:24:50;12.68;;;4.10;;
19137;SDS011;68178;52.188;5.598;2023-03-23T08:27:16;12.43;;;5.30;;
19137;SDS011;68178;52.188;5.598;2023-03-23T08:29:44;10.70;;;3.65;;
19137;SDS011;68178;52.188;5.598;2023-03-23T08:32:11;11.38;;;3.25;;
19137;SDS011;68178;52.188;5.598;2023-03-23T08:34:37;8.93;;;3.22;;
19137;SDS011;68178;52.188;5.598;2023-03-23T08:37:03;12.82;;;3.60;;
19137;SDS011;68178;52.188;5.598;2023-03-23T08:39:29;10.27;;;3.38;;
19137;SDS011;68178;52.188;5.598;2023-03-23T08:41:56;10.32;;;2.90;;
19137;SDS011;68178;52.188;5.598;2023-03-23T08:44:21;8.13;;;3.63;;
19137;SDS011;68178;52.188;5.598;2023-03-23T08:46:48;10.60;;;3.13;;
19137;SDS011;68178;52.188;5.598;2023-03-23T08:49:14;9.57;;;3.38;;
19137;SDS011;68178;52.188;5.598;2023-03-23T08:51:40;8.80;;;3.22;;
19137;SDS011;68178;52.188;5.598;2023-03-23T08:54:06;8.55;;;3.58;;
19137;SDS011;68178;52.188;5.598;2023-03-23T08:56:33;8.23;;;3.70;;
19137;SDS011;68178;52.188;5.598;2023-03-23T08:58:59;9.65;;;3.50;;
19137;SDS011;68178;52.188;5.598;2023-03-23T09:01:25;9.20;;;3.25;;
19137;SDS011;68178;52.188;5.598;2023-03-23T09:03:51;11.45;;;3.25;;
19137;SDS011;68178;52.188;5.598;2023-03-23T09:06:17;10.48;;;3.20;;
19137;SDS011;68178;52.188;5.598;2023-03-23T09:08:43;8.68;;;3.25;;
19137;SDS011;68178;52.188;5.598;2023-03-23T09:11:10;10.65;;;3.47;;
19137;SDS011;68178;52.188;5.598;2023-03-23T09:13:36;9.98;;;3.92;;
19137;SDS011;68178;52.188;5.598;2023-03-23T09:16:03;8.48;;;3.35;;
19137;SDS011;68178;52.188;5.598;2023-03-23T09:18:30;12.20;;;3.78;;
19137;SDS011;68178;52.188;5.598;2023-03-23T09:20:57;8.13;;;3.17;;
19137;SDS011;68178;52.188;5.598;2023-03-23T09:23:23;8.60;;;3.20;;
19137;SDS011;68178;52.188;5.598;2023-03-23T09:25:49;8.38;;;2.92;;
19137;SDS011;68178;52.188;5.598;2023-03-23T09:28:16;7.53;;;2.80;;
19137;SDS011;68178;52.188;5.598;2023-03-23T09:30:42;14.15;;;3.92;;
19137;SDS011;68178;52.188;5.598;2023-03-23T09:33:10;7.10;;;3.08;;
19137;SDS011;68178;52.188;5.598;2023-03-23T09:35:36;11.40;;;3.88;;
19137;SDS011;68178;52.188;5.598;2023-03-23T09:38:03;11.60;;;3.42;;
19137;SDS011;68178;52.188;5.598;2023-03-23T09:40:43;8.25;;;3.10;;
19137;SDS011;68178;52.188;5.598;2023-03-23T09:43:28;8.00;;;2.75;;
19137;SDS011;68178;52.188;5.598;2023-03-23T09:46:17;9.25;;;3.30;;
19137;SDS011;68178;52.188;5.598;2023-03-23T09:48:54;14.02;;;3.38;;
19137;SDS011;68178;52.188;5.598;2023-03-23T09:51:27;12.77;;;3.25;;
19137;SDS011;68178;52.188;5.598;2023-03-23T09:53:57;9.35;;;2.35;;
19137;SDS011;68178;52.188;5.598;2023-03-23T09:56:24;6.82;;;2.42;;
19137;SDS011;68178;52.188;5.598;2023-03-23T09:58:57;10.80;;;3.25;;
19137;SDS011;68178;52.188;5.598;2023-03-23T10:01:26;8.60;;;3.30;;
19137;SDS011;68178;52.188;5.598;2023-03-23T10:03:55;9.82;;;2.78;;
19137;SDS011;68178;52.188;5.598;2023-03-23T10:06:23;8.27;;;2.30;;
19137;SDS011;68178;52.188;5.598;2023-03-23T10:08:51;14.60;;;2.92;;
19137;SDS011;68178;52.188;5.598;2023-03-23T10:11:36;6.68;;;2.70;;
19137;SDS011;68178;52.188;5.598;2023-03-23T10:14:23;10.65;;;2.78;;
19137;SDS011;68178;52.188;5.598;2023-03-23T10:17:00;11.95;;;3.42;;
19137;SDS011;68178;52.188;5.598;2023-03-23T10:19:32;9.50;;;2.75;;
19137;SDS011;68178;52.188;5.598;2023-03-23T10:22:03;11.18;;;3.38;;
19137;SDS011;68178;52.188;5.598;2023-03-23T10:24:46;12.23;;;2.72;;
19137;SDS011;68178;52.188;5.598;2023-03-23T10:27:19;9.48;;;2.78;;
19137;SDS011;68178;52.188;5.598;2023-03-23T10:29:48;11.88;;;3.90;;
19137;SDS011;68178;52.188;5.598;2023-03-23T10:32:50;6.35;;;2.17;;
19137;SDS011;68178;52.188;5.598;2023-03-23T10:35:25;11.93;;;3.00;;
19137;SDS011;68178;52.188;5.598;2023-03-23T10:37:53;11.13;;;2.92;;
19137;SDS011;68178;52.188;5.598;2023-03-23T10:40:23;13.07;;;3.47;;
19137;SDS011;68178;52.188;5.598;2023-03-23T10:42:51;9.10;;;2.78;;
19137;SDS011;68178;52.188;5.598;2023-03-23T10:45:21;11.95;;;3.42;;
19137;SDS011;68178;52.188;5.598;2023-03-23T10:47:52;14.25;;;3.50;;
19137;SDS011;68178;52.188;5.598;2023-03-23T10:50:22;8.77;;;2.88;;
19137;SDS011;68178;52.188;5.598;2023-03-23T10:52:50;7.75;;;2.53;;
19137;SDS011;68178;52.188;5.598;2023-03-23T10:55:18;15.32;;;3.83;;
19137;SDS011;68178;52.188;5.598;2023-03-23T10:57:46;9.25;;;3.40;;
19137;SDS011;68178;52.188;5.598;2023-03-23T11:00:23;13.77;;;3.55;;
19137;SDS011;68178;52.188;5.598;2023-03-23T11:08:29;8.75;;;2.40;;
19137;SDS011;68178;52.188;5.598;2023-03-23T11:10:57;10.25;;;2.85;;
19137;SDS011;68178;52.188;5.598;2023-03-23T11:13:28;13.57;;;3.25;;
19137;SDS011;68178;52.188;5.598;2023-03-23T11:15:55;9.07;;;2.80;;
19137;SDS011;68178;52.188;5.598;2023-03-23T11:18:26;14.27;;;2.72;;
19137;SDS011;68178;52.188;5.598;2023-03-23T11:20:55;8.15;;;2.65;;
19137;SDS011;68178;52.188;5.598;2023-03-23T11:23:27;10.07;;;2.70;;
19137;SDS011;68178;52.188;5.598;2023-03-23T11:25:56;10.50;;;3.25;;
19137;SDS011;68178;52.188;5.598;2023-03-23T11:28:26;11.48;;;2.60;;
19137;SDS011;68178;52.188;5.598;2023-03-23T11:30:54;9.43;;;2.80;;
19137;SDS011;68178;52.188;5.598;2023-03-23T11:33:20;8.73;;;3.08;;
19137;SDS011;68178;52.188;5.598;2023-03-23T11:35:49;8.10;;;3.05;;
19137;SDS011;68178;52.188;5.598;2023-03-23T11:38:18;11.32;;;2.83;;
19137;SDS011;68178;52.188;5.598;2023-03-23T11:40:49;9.27;;;2.88;;
19137;SDS011;68178;52.188;5.598;2023-03-23T11:43:23;9.65;;;3.13;;
19137;SDS011;68178;52.188;5.598;2023-03-23T11:51:08;10.00;;;2.42;;
19137;SDS011;68178;52.188;5.598;2023-03-23T11:56:24;7.25;;;2.30;;
19137;SDS011;68178;52.188;5.598;2023-03-23T11:58:52;7.85;;;2.60;;
19137;SDS011;68178;52.188;5.598;2023-03-23T12:01:21;6.90;;;2.40;;
19137;SDS011;68178;52.188;5.598;2023-03-23T12:04:03;6.18;;;2.38;;
19137;SDS011;68178;52.188;5.598;2023-03-23T12:09:09;10.20;;;2.55;;
19137;SDS011;68178;52.188;5.598;2023-03-23T12:17:22;8.48;;;2.88;;
19137;SDS011;68178;52.188;5.598;2023-03-23T12:24:46;6.97;;;2.17;;
19137;SDS011;68178;52.188;5.598;2023-03-23T12:35:01;6.85;;;2.47;;
19137;SDS011;68178;52.188;5.598;2023-03-23T12:37:49;11.18;;;2.95;;
19137;SDS011;68178;52.188;5.598;2023-03-23T12:40:21;12.63;;;3.20;;
19137;SDS011;68178;52.188;5.598;2023-03-23T12:42:58;12.70;;;3.03;;
19137;SDS011;68178;52.188;5.598;2023-03-23T12:48:11;8.95;;;2.55;;
19137;SDS011;68178;52.188;5.598;2023-03-23T12:50:40;11.65;;;3.17;;
19137;SDS011;68178;52.188;5.598;2023-03-23T12:53:12;13.57;;;3.10;;
19137;SDS011;68178;52.188;5.598;2023-03-23T12:55:50;14.05;;;3.10;;
19137;SDS011;68178;52.188;5.598;2023-03-23T13:03:22;10.55;;;3.00;;
19137;SDS011;68178;52.188;5.598;2023-03-23T13:05:53;12.02;;;2.95;;
19137;SDS011;68178;52.188;5.598;2023-03-23T13:08:36;9.27;;;2.15;;
19137;SDS011;68178;52.188;5.598;2023-03-23T13:11:04;11.30;;;2.78;;
19137;SDS011;68178;52.188;5.598;2023-03-23T13:21:38;14.50;;;3.03;;
19137;SDS011;68178;52.188;5.598;2023-03-23T13:24:10;7.00;;;2.63;;
19137;SDS011;68178;52.188;5.598;2023-03-23T13:26:39;8.82;;;2.17;;
19137;SDS011;68178;52.188;5.598;2023-03-23T13:29:12;7.88;;;2.00;;
19137;SDS011;68178;52.188;5.598;2023-03-23T13:31:39;7.45;;;2.20;;
19137;SDS011;68178;52.188;5.598;2023-03-23T13:34:12;5.47;;;2.25;;
19137;SDS011;68178;52.188;5.598;2023-03-23T13:36:44;9.20;;;1.95;;
19137;SDS011;68178;52.188;5.598;2023-03-23T13:39:21;6.65;;;2.13;;
19137;SDS011;68178;52.188;5.598;2023-03-23T13:41:58;8.82;;;2.25;;
19137;SDS011;68178;52.188;5.598;2023-03-23T13:44:25;8.05;;;1.88;;
19137;SDS011;68178;52.188;5.598;2023-03-23T13:46:56;7.35;;;2.50;;
19137;SDS011;68178;52.188;5.598;2023-03-23T13:49:23;9.18;;;2.38;;
19137;SDS011;68178;52.188;5.598;2023-03-23T13:51:56;7.28;;;2.00;;
19137;SDS011;68178;52.188;5.598;2023-03-23T13:54:24;12.27;;;2.45;;
19137;SDS011;68178;52.188;5.598;2023-03-23T13:56:53;7.72;;;1.95;;
19137;SDS011;68178;52.188;5.598;2023-03-23T14:01:52;7.78;;;2.38;;
19137;SDS011;68178;52.188;5.598;2023-03-23T14:04:18;5.32;;;2.08;;
19137;SDS011;68178;52.188;5.598;2023-03-23T14:06:46;5.22;;;1.73;;
19137;SDS011;68178;52.188;5.598;2023-03-23T14:09:15;6.95;;;2.50;;
19137;SDS011;68178;52.188;5.598;2023-03-23T14:11:46;7.97;;;2.28;;
19137;SDS011;68178;52.188;5.598;2023-03-23T14:14:17;8.52;;;2.22;;
19137;SDS011;68178;52.188;5.598;2023-03-23T14:16:44;8.45;;;2.85;;
19137;SDS011;68178;52.188;5.598;2023-03-23T14:19:28;8.55;;;2.60;;
19137;SDS011;68178;52.188;5.598;2023-03-23T14:21:56;7.28;;;2.00;;
19137;SDS011;68178;52.188;5.598;2023-03-23T14:24:26;6.13;;;2.30;;
19137;SDS011;68178;52.188;5.598;2023-03-23T14:26:53;10.60;;;2.63;;
19137;SDS011;68178;52.188;5.598;2023-03-23T14:29:26;9.10;;;2.53;;
19137;SDS011;68178;52.188;5.598;2023-03-23T14:31:56;4.95;;;2.05;;
19137;SDS011;68178;52.188;5.598;2023-03-23T14:34:25;6.47;;;2.72;;
19137;SDS011;68178;52.188;5.598;2023-03-23T14:36:52;7.93;;;3.05;;
19137;SDS011;68178;52.188;5.598;2023-03-23T14:39:20;11.90;;;2.08;;
19137;SDS011;68178;52.188;5.598;2023-03-23T14:41:47;9.23;;;2.67;;
19137;SDS011;68178;52.188;5.598;2023-03-23T14:44:14;9.20;;;2.63;;
19137;SDS011;68178;52.188;5.598;2023-03-23T14:46:41;6.38;;;1.85;;
19137;SDS011;68178;52.188;5.598;2023-03-23T14:49:10;5.68;;;1.73;;
19137;SDS011;68178;52.188;5.598;2023-03-23T14:51:37;5.65;;;1.70;;
19137;SDS011;68178;52.188;5.598;2023-03-23T14:54:07;5.95;;;2.00;;
19137;SDS011;68178;52.188;5.598;2023-03-23T14:56:36;7.90;;;2.70;;
19137;SDS011;68178;52.188;5.598;2023-03-23T14:59:03;4.85;;;1.77;;
19137;SDS011;68178;52.188;5.598;2023-03-23T15:01:30;5.60;;;2.17;;
19137;SDS011;68178;52.188;5.598;2023-03-23T15:04:14;6.65;;;2.25;;
19137;SDS011;68178;52.188;5.598;2023-03-23T15:06:42;8.80;;;2.95;;
19137;SDS011;68178;52.188;5.598;2023-03-23T15:09:13;5.30;;;2.13;;
19137;SDS011;68178;52.188;5.598;2023-03-23T15:11:40;7.00;;;2.05;;
19137;SDS011;68178;52.188;5.598;2023-03-23T15:14:28;6.05;;;2.58;;
19137;SDS011;68178;52.188;5.598;2023-03-23T15:16:54;6.90;;;1.77;;
19137;SDS011;68178;52.188;5.598;2023-03-23T15:19:23;5.38;;;1.75;;
19137;SDS011;68178;52.188;5.598;2023-03-23T15:21:52;5.78;;;1.88;;
19137;SDS011;68178;52.188;5.598;2023-03-23T15:24:20;8.20;;;2.22;;
19137;SDS011;68178;52.188;5.598;2023-03-23T15:26:46;6.55;;;2.22;;
19137;SDS011;68178;52.188;5.598;2023-03-23T15:31:42;6.75;;;2.30;;
19137;SDS011;68178;52.188;5.598;2023-03-23T15:34:19;7.97;;;2.28;;
19137;SDS011;68178;52.188;5.598;2023-03-23T15:36:49;7.88;;;2.55;;
19137;SDS011;68178;52.188;5.598;2023-03-23T15:39:16;7.05;;;2.30;;
19137;SDS011;68178;52.188;5.598;2023-03-23T15:41:46;11.18;;;2.28;;
19137;SDS011;68178;52.188;5.598;2023-03-23T15:44:18;10.85;;;2.95;;
19137;SDS011;68178;52.188;5.598;2023-03-23T15:46:49;8.98;;;2.83;;
19137;SDS011;68178;52.188;5.598;2023-03-23T15:49:15;11.38;;;3.03;;
19137;SDS011;68178;52.188;5.598;2023-03-23T15:51:42;7.68;;;2.35;;
19137;SDS011;68178;52.188;5.598;2023-03-23T15:54:12;11.23;;;2.88;;
19137;SDS011;68178;52.188;5.598;2023-03-23T15:56:39;8.27;;;2.60;;
19137;SDS011;68178;52.188;5.598;2023-03-23T15:59:05;7.00;;;2.30;;
19137;SDS011;68178;52.188;5.598;2023-03-23T16:01:31;8.90;;;2.42;;
19137;SDS011;68178;52.188;5.598;2023-03-23T16:04:03;10.43;;;2.85;;